sensor_id;sensor_type;location;lat;lon;timestamp;P1;durP1;ratioP1;P2;durP2;ratioP2
12896;SDS011;6516;35.028;32.372;2023-02-18T00:00:57;7.20;;;3.90;;
12896;SDS011;6516;35.028;32.372;2023-02-18T00:03:26;7.57;;;4.00;;
12896;SDS011;6516;35.028;32.372;2023-02-18T00:05:55;7.40;;;3.97;;
12896;SDS011;6516;35.028;32.372;2023-02-18T00:08:23;7.27;;;3.93;;
12896;SDS011;6516;35.028;32.372;2023-02-18T00:10:51;7.82;;;3.92;;
12896;SDS011;6516;35.028;32.372;2023-02-18T00:13:19;7.05;;;3.50;;
12896;SDS011;6516;35.028;32.372;2023-02-18T00:15:46;6.63;;;3.78;;
12896;SDS011;6516;35.028;32.372;2023-02-18T00:18:16;7.13;;;3.97;;
12896;SDS011;6516;35.028;32.372;2023-02-18T00:20:43;9.27;;;3.60;;
12896;SDS011;6516;35.028;32.372;2023-02-18T00:23:11;7.78;;;3.67;;
12896;SDS011;6516;35.028;32.372;2023-02-18T00:25:39;7.95;;;3.90;;
12896;SDS011;6516;35.028;32.372;2023-02-18T00:28:07;6.72;;;3.65;;
12896;SDS011;6516;35.028;32.372;2023-02-18T00:30:35;7.15;;;3.90;;
12896;SDS011;6516;35.028;32.372;2023-02-18T00:33:06;7.27;;;3.67;;
12896;SDS011;6516;35.028;32.372;2023-02-18T00:35:35;9.00;;;3.95;;
12896;SDS011;6516;35.028;32.372;2023-02-18T00:38:03;8.40;;;3.97;;
12896;SDS011;6516;35.028;32.372;2023-02-18T00:40:31;8.73;;;3.92;;
12896;SDS011;6516;35.028;32.372;2023-02-18T00:42:59;6.32;;;3.85;;
12896;SDS011;6516;35.028;32.372;2023-02-18T00:45:27;7.33;;;3.70;;
12896;SDS011;6516;35.028;32.372;2023-02-18T00:47:54;7.22;;;3.53;;
12896;SDS011;6516;35.028;32.372;2023-02-18T00:50:24;7.15;;;3.70;;
12896;SDS011;6516;35.028;32.372;2023-02-18T00:52:53;6.82;;;3.85;;
12896;SDS011;6516;35.028;32.372;2023-02-18T00:55:21;6.95;;;3.90;;
12896;SDS011;6516;35.028;32.372;2023-02-18T00:57:48;6.47;;;3.03;;
12896;SDS011;6516;35.028;32.372;2023-02-18T01:00:16;7.47;;;3.72;;
12896;SDS011;6516;35.028;32.372;2023-02-18T01:02:45;7.63;;;3.53;;
12896;SDS011;6516;35.028;32.372;2023-02-18T01:05:13;7.78;;;3.95;;
12896;SDS011;6516;35.028;32.372;2023-02-18T01:07:40;7.35;;;4.00;;
12896;SDS011;6516;35.028;32.372;2023-02-18T01:10:10;7.47;;;3.93;;
12896;SDS011;6516;35.028;32.372;2023-02-18T01:12:38;6.57;;;3.72;;
12896;SDS011;6516;35.028;32.372;2023-02-18T01:15:06;7.53;;;3.70;;
12896;SDS011;6516;35.028;32.372;2023-02-18T01:17:35;6.47;;;3.70;;
12896;SDS011;6516;35.028;32.372;2023-02-18T01:20:03;6.88;;;3.90;;
12896;SDS011;6516;35.028;32.372;2023-02-18T01:22:32;6.60;;;3.40;;
12896;SDS011;6516;35.028;32.372;2023-02-18T01:24:59;6.88;;;3.30;;
12896;SDS011;6516;35.028;32.372;2023-02-18T01:27:29;5.72;;;3.40;;
12896;SDS011;6516;35.028;32.372;2023-02-18T01:29:56;7.57;;;4.00;;
12896;SDS011;6516;35.028;32.372;2023-02-18T01:32:24;6.47;;;3.47;;
12896;SDS011;6516;35.028;32.372;2023-02-18T01:34:52;9.47;;;3.60;;
12896;SDS011;6516;35.028;32.372;2023-02-18T01:37:20;6.18;;;3.50;;
12896;SDS011;6516;35.028;32.372;2023-02-18T01:39:48;7.97;;;3.92;;
12896;SDS011;6516;35.028;32.372;2023-02-18T01:42:19;7.97;;;3.65;;
12896;SDS011;6516;35.028;32.372;2023-02-18T01:44:51;8.35;;;4.20;;
12896;SDS011;6516;35.028;32.372;2023-02-18T01:47:18;7.60;;;3.50;;
12896;SDS011;6516;35.028;32.372;2023-02-18T01:49:48;6.63;;;3.55;;
12896;SDS011;6516;35.028;32.372;2023-02-18T01:52:19;6.72;;;3.70;;
12896;SDS011;6516;35.028;32.372;2023-02-18T01:54:52;6.75;;;3.72;;
12896;SDS011;6516;35.028;32.372;2023-02-18T01:57:24;6.00;;;3.45;;
12896;SDS011;6516;35.028;32.372;2023-02-18T01:59:58;7.90;;;4.10;;
12896;SDS011;6516;35.028;32.372;2023-02-18T02:02:32;7.00;;;3.60;;
12896;SDS011;6516;35.028;32.372;2023-02-18T02:05:04;10.13;;;3.80;;
12896;SDS011;6516;35.028;32.372;2023-02-18T02:07:32;7.03;;;3.30;;
12896;SDS011;6516;35.028;32.372;2023-02-18T02:10:00;7.57;;;3.60;;
12896;SDS011;6516;35.028;32.372;2023-02-18T02:15:25;6.50;;;3.28;;
12896;SDS011;6516;35.028;32.372;2023-02-18T02:18:06;6.88;;;3.50;;
12896;SDS011;6516;35.028;32.372;2023-02-18T02:27:33;8.30;;;3.70;;
12896;SDS011;6516;35.028;32.372;2023-02-18T02:30:46;6.93;;;3.67;;
12896;SDS011;6516;35.028;32.372;2023-02-18T02:33:49;7.93;;;3.65;;
12896;SDS011;6516;35.028;32.372;2023-02-18T02:36:51;6.47;;;3.47;;
12896;SDS011;6516;35.028;32.372;2023-02-18T02:39:25;9.90;;;3.38;;
12896;SDS011;6516;35.028;32.372;2023-02-18T02:42:01;9.70;;;3.72;;
12896;SDS011;6516;35.028;32.372;2023-02-18T02:44:37;7.93;;;3.90;;
12896;SDS011;6516;35.028;32.372;2023-02-18T02:47:16;6.03;;;3.33;;
12896;SDS011;6516;35.028;32.372;2023-02-18T02:49:52;7.22;;;3.60;;
12896;SDS011;6516;35.028;32.372;2023-02-18T02:52:29;6.57;;;3.70;;
12896;SDS011;6516;35.028;32.372;2023-02-18T02:54:59;6.78;;;3.50;;
12896;SDS011;6516;35.028;32.372;2023-02-18T02:57:42;7.40;;;3.83;;
12896;SDS011;6516;35.028;32.372;2023-02-18T03:00:15;8.40;;;3.97;;
12896;SDS011;6516;35.028;32.372;2023-02-18T03:02:50;6.28;;;3.80;;
12896;SDS011;6516;35.028;32.372;2023-02-18T03:05:43;6.63;;;3.70;;
12896;SDS011;6516;35.028;32.372;2023-02-18T03:08:31;7.13;;;3.72;;
12896;SDS011;6516;35.028;32.372;2023-02-18T03:11:07;6.30;;;3.65;;
12896;SDS011;6516;35.028;32.372;2023-02-18T03:13:44;7.10;;;3.43;;
12896;SDS011;6516;35.028;32.372;2023-02-18T03:16:25;6.72;;;3.55;;
12896;SDS011;6516;35.028;32.372;2023-02-18T03:19:02;7.03;;;3.50;;
12896;SDS011;6516;35.028;32.372;2023-02-18T03:21:37;6.90;;;3.78;;
12896;SDS011;6516;35.028;32.372;2023-02-18T03:24:13;7.35;;;3.92;;
12896;SDS011;6516;35.028;32.372;2023-02-18T03:26:47;10.07;;;4.13;;
12896;SDS011;6516;35.028;32.372;2023-02-18T03:29:19;6.90;;;4.20;;
12896;SDS011;6516;35.028;32.372;2023-02-18T03:31:49;8.93;;;3.97;;
12896;SDS011;6516;35.028;32.372;2023-02-18T03:34:22;7.40;;;3.55;;
12896;SDS011;6516;35.028;32.372;2023-02-18T03:36:55;7.80;;;4.00;;
12896;SDS011;6516;35.028;32.372;2023-02-18T03:39:27;6.33;;;3.47;;
12896;SDS011;6516;35.028;32.372;2023-02-18T03:41:58;6.47;;;3.70;;
12896;SDS011;6516;35.028;32.372;2023-02-18T03:44:26;7.85;;;4.00;;
12896;SDS011;6516;35.028;32.372;2023-02-18T03:46:55;8.63;;;3.58;;
12896;SDS011;6516;35.028;32.372;2023-02-18T03:49:23;6.97;;;3.60;;
12896;SDS011;6516;35.028;32.372;2023-02-18T03:51:50;7.40;;;3.60;;
12896;SDS011;6516;35.028;32.372;2023-02-18T03:54:19;9.02;;;4.38;;
12896;SDS011;6516;35.028;32.372;2023-02-18T03:56:48;9.90;;;3.75;;
12896;SDS011;6516;35.028;32.372;2023-02-18T03:59:16;7.97;;;3.70;;
12896;SDS011;6516;35.028;32.372;2023-02-18T04:01:44;8.68;;;3.70;;
12896;SDS011;6516;35.028;32.372;2023-02-18T04:04:11;6.07;;;3.53;;
12896;SDS011;6516;35.028;32.372;2023-02-18T04:06:39;8.52;;;3.90;;
12896;SDS011;6516;35.028;32.372;2023-02-18T04:09:07;6.78;;;3.78;;
12896;SDS011;6516;35.028;32.372;2023-02-18T04:11:35;8.13;;;3.50;;
12896;SDS011;6516;35.028;32.372;2023-02-18T04:14:05;6.82;;;3.58;;
12896;SDS011;6516;35.028;32.372;2023-02-18T04:16:34;6.93;;;3.37;;
12896;SDS011;6516;35.028;32.372;2023-02-18T04:19:01;6.57;;;3.83;;
12896;SDS011;6516;35.028;32.372;2023-02-18T04:21:30;7.28;;;3.47;;
12896;SDS011;6516;35.028;32.372;2023-02-18T04:23:59;6.13;;;3.35;;
12896;SDS011;6516;35.028;32.372;2023-02-18T04:26:27;6.95;;;3.50;;
12896;SDS011;6516;35.028;32.372;2023-02-18T04:28:55;8.17;;;4.03;;
12896;SDS011;6516;35.028;32.372;2023-02-18T04:31:24;10.80;;;4.90;;
12896;SDS011;6516;35.028;32.372;2023-02-18T04:33:52;13.13;;;5.45;;
12896;SDS011;6516;35.028;32.372;2023-02-18T04:36:20;12.88;;;5.93;;
12896;SDS011;6516;35.028;32.372;2023-02-18T04:38:48;11.65;;;5.57;;
12896;SDS011;6516;35.028;32.372;2023-02-18T04:41:16;11.40;;;5.37;;
12896;SDS011;6516;35.028;32.372;2023-02-18T04:43:44;8.23;;;5.25;;
12896;SDS011;6516;35.028;32.372;2023-02-18T04:46:11;8.68;;;4.18;;
12896;SDS011;6516;35.028;32.372;2023-02-18T04:48:41;7.15;;;4.20;;
12896;SDS011;6516;35.028;32.372;2023-02-18T04:51:08;6.88;;;4.07;;
12896;SDS011;6516;35.028;32.372;2023-02-18T04:53:37;7.63;;;3.90;;
12896;SDS011;6516;35.028;32.372;2023-02-18T04:56:05;7.57;;;3.63;;
12896;SDS011;6516;35.028;32.372;2023-02-18T04:58:32;6.95;;;3.25;;
12896;SDS011;6516;35.028;32.372;2023-02-18T05:01:01;6.43;;;3.67;;
12896;SDS011;6516;35.028;32.372;2023-02-18T05:03:29;7.40;;;3.72;;
12896;SDS011;6516;35.028;32.372;2023-02-18T05:05:59;6.20;;;3.47;;
12896;SDS011;6516;35.028;32.372;2023-02-18T05:08:27;6.93;;;3.50;;
12896;SDS011;6516;35.028;32.372;2023-02-18T05:10:55;6.55;;;3.97;;
12896;SDS011;6516;35.028;32.372;2023-02-18T05:13:23;7.18;;;3.53;;
12896;SDS011;6516;35.028;32.372;2023-02-18T05:15:52;7.65;;;3.80;;
12896;SDS011;6516;35.028;32.372;2023-02-18T05:18:20;8.63;;;4.30;;
12896;SDS011;6516;35.028;32.372;2023-02-18T05:20:47;7.75;;;4.00;;
12896;SDS011;6516;35.028;32.372;2023-02-18T05:23:17;7.75;;;4.07;;
12896;SDS011;6516;35.028;32.372;2023-02-18T05:25:45;6.32;;;3.28;;
12896;SDS011;6516;35.028;32.372;2023-02-18T05:28:13;7.85;;;3.70;;
12896;SDS011;6516;35.028;32.372;2023-02-18T05:30:41;6.03;;;3.80;;
12896;SDS011;6516;35.028;32.372;2023-02-18T05:33:08;7.05;;;3.65;;
12896;SDS011;6516;35.028;32.372;2023-02-18T05:35:36;7.55;;;3.50;;
12896;SDS011;6516;35.028;32.372;2023-02-18T05:38:04;7.53;;;3.60;;
12896;SDS011;6516;35.028;32.372;2023-02-18T05:40:33;7.32;;;3.22;;
12896;SDS011;6516;35.028;32.372;2023-02-18T05:43:01;6.80;;;3.73;;
12896;SDS011;6516;35.028;32.372;2023-02-18T05:45:29;5.88;;;3.42;;
12896;SDS011;6516;35.028;32.372;2023-02-18T05:47:56;7.63;;;3.35;;
12896;SDS011;6516;35.028;32.372;2023-02-18T05:50:24;6.18;;;3.55;;
12896;SDS011;6516;35.028;32.372;2023-02-18T05:52:52;7.78;;;4.28;;
12896;SDS011;6516;35.028;32.372;2023-02-18T05:55:19;6.50;;;3.23;;
12896;SDS011;6516;35.028;32.372;2023-02-18T05:57:50;6.40;;;3.25;;
12896;SDS011;6516;35.028;32.372;2023-02-18T06:00:18;5.82;;;3.08;;
12896;SDS011;6516;35.028;32.372;2023-02-18T06:02:45;5.70;;;2.90;;
12896;SDS011;6516;35.028;32.372;2023-02-18T06:05:13;6.40;;;3.25;;
12896;SDS011;6516;35.028;32.372;2023-02-18T06:07:41;6.03;;;2.93;;
12896;SDS011;6516;35.028;32.372;2023-02-18T06:10:09;5.30;;;2.80;;
12896;SDS011;6516;35.028;32.372;2023-02-18T06:12:37;5.93;;;2.80;;
12896;SDS011;6516;35.028;32.372;2023-02-18T06:15:06;5.10;;;2.50;;
12896;SDS011;6516;35.028;32.372;2023-02-18T06:17:34;6.15;;;3.15;;
12896;SDS011;6516;35.028;32.372;2023-02-18T06:20:02;5.00;;;2.60;;
12896;SDS011;6516;35.028;32.372;2023-02-18T06:22:31;5.30;;;2.80;;
12896;SDS011;6516;35.028;32.372;2023-02-18T06:24:59;5.35;;;2.78;;
12896;SDS011;6516;35.028;32.372;2023-02-18T06:27:27;5.45;;;2.60;;
12896;SDS011;6516;35.028;32.372;2023-02-18T06:29:55;5.57;;;2.83;;
12896;SDS011;6516;35.028;32.372;2023-02-18T06:32:24;5.10;;;2.60;;
12896;SDS011;6516;35.028;32.372;2023-02-18T06:34:52;4.65;;;2.63;;
12896;SDS011;6516;35.028;32.372;2023-02-18T06:37:19;4.82;;;2.42;;
12896;SDS011;6516;35.028;32.372;2023-02-18T06:39:47;5.57;;;2.50;;
12896;SDS011;6516;35.028;32.372;2023-02-18T06:42:15;5.20;;;2.50;;
12896;SDS011;6516;35.028;32.372;2023-02-18T06:44:43;4.97;;;2.50;;
12896;SDS011;6516;35.028;32.372;2023-02-18T06:47:10;5.20;;;2.50;;
12896;SDS011;6516;35.028;32.372;2023-02-18T06:49:42;5.30;;;2.78;;
12896;SDS011;6516;35.028;32.372;2023-02-18T06:52:10;7.72;;;2.70;;
12896;SDS011;6516;35.028;32.372;2023-02-18T06:54:38;4.70;;;2.53;;
12896;SDS011;6516;35.028;32.372;2023-02-18T06:57:05;5.80;;;2.47;;
12896;SDS011;6516;35.028;32.372;2023-02-18T06:59:33;5.82;;;2.67;;
12896;SDS011;6516;35.028;32.372;2023-02-18T07:02:01;5.10;;;2.50;;
12896;SDS011;6516;35.028;32.372;2023-02-18T07:04:28;5.45;;;2.65;;
12896;SDS011;6516;35.028;32.372;2023-02-18T07:06:58;5.43;;;2.55;;
12896;SDS011;6516;35.028;32.372;2023-02-18T07:09:25;5.83;;;2.83;;
12896;SDS011;6516;35.028;32.372;2023-02-18T07:11:53;5.65;;;2.80;;
12896;SDS011;6516;35.028;32.372;2023-02-18T07:14:22;6.63;;;3.00;;
12896;SDS011;6516;35.028;32.372;2023-02-18T07:16:51;5.57;;;2.90;;
12896;SDS011;6516;35.028;32.372;2023-02-18T07:19:19;5.32;;;2.80;;
12896;SDS011;6516;35.028;32.372;2023-02-18T07:21:47;5.60;;;2.73;;
12896;SDS011;6516;35.028;32.372;2023-02-18T07:24:16;5.60;;;2.63;;
12896;SDS011;6516;35.028;32.372;2023-02-18T07:26:44;6.97;;;2.70;;
12896;SDS011;6516;35.028;32.372;2023-02-18T07:29:11;5.03;;;2.50;;
12896;SDS011;6516;35.028;32.372;2023-02-18T07:31:39;5.65;;;2.53;;
12896;SDS011;6516;35.028;32.372;2023-02-18T07:34:07;6.90;;;2.60;;
12896;SDS011;6516;35.028;32.372;2023-02-18T07:36:35;5.72;;;2.63;;
12896;SDS011;6516;35.028;32.372;2023-02-18T07:39:02;4.82;;;2.58;;
12896;SDS011;6516;35.028;32.372;2023-02-18T07:41:32;7.15;;;2.67;;
12896;SDS011;6516;35.028;32.372;2023-02-18T07:44:00;5.07;;;2.25;;
12896;SDS011;6516;35.028;32.372;2023-02-18T07:46:28;7.60;;;3.20;;
12896;SDS011;6516;35.028;32.372;2023-02-18T07:48:56;6.15;;;3.10;;
12896;SDS011;6516;35.028;32.372;2023-02-18T07:51:24;7.28;;;3.20;;
12896;SDS011;6516;35.028;32.372;2023-02-18T07:53:51;6.03;;;3.28;;
12896;SDS011;6516;35.028;32.372;2023-02-18T07:56:19;6.80;;;3.60;;
12896;SDS011;6516;35.028;32.372;2023-02-18T07:58:48;9.70;;;3.70;;
12896;SDS011;6516;35.028;32.372;2023-02-18T08:01:16;8.43;;;4.38;;
12896;SDS011;6516;35.028;32.372;2023-02-18T08:03:44;5.40;;;2.70;;
12896;SDS011;6516;35.028;32.372;2023-02-18T08:06:18;6.68;;;2.90;;
12896;SDS011;6516;35.028;32.372;2023-02-18T08:08:56;7.82;;;3.08;;
12896;SDS011;6516;35.028;32.372;2023-02-18T08:11:24;10.63;;;4.10;;
12896;SDS011;6516;35.028;32.372;2023-02-18T08:13:53;10.40;;;4.63;;
12896;SDS011;6516;35.028;32.372;2023-02-18T08:16:21;10.73;;;3.97;;
12896;SDS011;6516;35.028;32.372;2023-02-18T08:18:50;6.40;;;3.20;;
12896;SDS011;6516;35.028;32.372;2023-02-18T08:21:19;5.75;;;3.13;;
12896;SDS011;6516;35.028;32.372;2023-02-18T08:23:48;7.30;;;3.13;;
12896;SDS011;6516;35.028;32.372;2023-02-18T08:26:17;8.35;;;3.22;;
12896;SDS011;6516;35.028;32.372;2023-02-18T08:28:46;6.35;;;2.95;;
12896;SDS011;6516;35.028;32.372;2023-02-18T08:31:17;12.30;;;5.95;;
12896;SDS011;6516;35.028;32.372;2023-02-18T08:33:47;10.15;;;4.50;;
12896;SDS011;6516;35.028;32.372;2023-02-18T08:36:15;7.77;;;3.73;;
12896;SDS011;6516;35.028;32.372;2023-02-18T08:38:43;6.72;;;3.60;;
12896;SDS011;6516;35.028;32.372;2023-02-18T08:41:11;7.53;;;3.13;;
12896;SDS011;6516;35.028;32.372;2023-02-18T08:43:40;7.35;;;3.45;;
12896;SDS011;6516;35.028;32.372;2023-02-18T08:46:07;7.47;;;3.30;;
12896;SDS011;6516;35.028;32.372;2023-02-18T08:48:37;7.90;;;3.33;;
12896;SDS011;6516;35.028;32.372;2023-02-18T08:51:12;7.43;;;3.47;;
12896;SDS011;6516;35.028;32.372;2023-02-18T08:53:41;6.82;;;3.33;;
12896;SDS011;6516;35.028;32.372;2023-02-18T08:56:10;6.20;;;3.15;;
12896;SDS011;6516;35.028;32.372;2023-02-18T08:58:39;7.82;;;3.65;;
12896;SDS011;6516;35.028;32.372;2023-02-18T09:01:08;15.20;;;7.20;;
12896;SDS011;6516;35.028;32.372;2023-02-18T09:03:40;13.90;;;6.03;;
12896;SDS011;6516;35.028;32.372;2023-02-18T09:06:07;7.78;;;3.78;;
12896;SDS011;6516;35.028;32.372;2023-02-18T09:08:35;7.75;;;3.40;;
12896;SDS011;6516;35.028;32.372;2023-02-18T09:11:03;8.15;;;3.60;;
12896;SDS011;6516;35.028;32.372;2023-02-18T09:13:32;8.20;;;3.57;;
12896;SDS011;6516;35.028;32.372;2023-02-18T09:16:01;5.22;;;2.70;;
12896;SDS011;6516;35.028;32.372;2023-02-18T09:18:32;5.97;;;2.78;;
12896;SDS011;6516;35.028;32.372;2023-02-18T09:21:03;5.97;;;2.83;;
12896;SDS011;6516;35.028;32.372;2023-02-18T09:23:33;6.72;;;2.80;;
12896;SDS011;6516;35.028;32.372;2023-02-18T09:26:03;4.77;;;2.80;;
12896;SDS011;6516;35.028;32.372;2023-02-18T09:28:32;5.38;;;2.50;;
12896;SDS011;6516;35.028;32.372;2023-02-18T09:31:02;6.72;;;2.60;;
12896;SDS011;6516;35.028;32.372;2023-02-18T09:33:33;6.25;;;2.58;;
12896;SDS011;6516;35.028;32.372;2023-02-18T09:36:04;5.10;;;2.60;;
12896;SDS011;6516;35.028;32.372;2023-02-18T09:38:33;8.00;;;2.73;;
12896;SDS011;6516;35.028;32.372;2023-02-18T09:41:02;6.75;;;2.67;;
12896;SDS011;6516;35.028;32.372;2023-02-18T09:43:35;5.03;;;2.70;;
12896;SDS011;6516;35.028;32.372;2023-02-18T09:46:11;4.63;;;2.58;;
12896;SDS011;6516;35.028;32.372;2023-02-18T09:48:47;7.68;;;2.95;;
12896;SDS011;6516;35.028;32.372;2023-02-18T09:51:18;5.73;;;2.50;;
12896;SDS011;6516;35.028;32.372;2023-02-18T09:53:46;6.57;;;2.78;;
12896;SDS011;6516;35.028;32.372;2023-02-18T09:56:14;6.63;;;2.40;;
12896;SDS011;6516;35.028;32.372;2023-02-18T09:58:48;5.60;;;2.60;;
12896;SDS011;6516;35.028;32.372;2023-02-18T10:01:20;7.15;;;2.50;;
12896;SDS011;6516;35.028;32.372;2023-02-18T10:03:54;9.70;;;2.60;;
12896;SDS011;6516;35.028;32.372;2023-02-18T10:06:30;6.60;;;2.55;;
12896;SDS011;6516;35.028;32.372;2023-02-18T10:09:00;5.47;;;2.60;;
12896;SDS011;6516;35.028;32.372;2023-02-18T10:11:34;5.72;;;2.70;;
12896;SDS011;6516;35.028;32.372;2023-02-18T10:14:08;5.60;;;2.47;;
12896;SDS011;6516;35.028;32.372;2023-02-18T10:16:38;5.70;;;2.60;;
12896;SDS011;6516;35.028;32.372;2023-02-18T10:19:11;5.82;;;2.70;;
12896;SDS011;6516;35.028;32.372;2023-02-18T10:21:49;5.85;;;2.78;;
12896;SDS011;6516;35.028;32.372;2023-02-18T10:24:22;4.68;;;2.40;;
12896;SDS011;6516;35.028;32.372;2023-02-18T10:26:55;4.88;;;2.53;;
12896;SDS011;6516;35.028;32.372;2023-02-18T10:29:25;4.90;;;2.80;;
12896;SDS011;6516;35.028;32.372;2023-02-18T10:31:56;4.63;;;2.50;;
12896;SDS011;6516;35.028;32.372;2023-02-18T10:34:37;4.45;;;2.38;;
12896;SDS011;6516;35.028;32.372;2023-02-18T10:37:12;8.13;;;2.78;;
12896;SDS011;6516;35.028;32.372;2023-02-18T10:39:59;5.45;;;2.20;;
12896;SDS011;6516;35.028;32.372;2023-02-18T10:42:37;5.90;;;2.20;;
12896;SDS011;6516;35.028;32.372;2023-02-18T10:45:23;5.03;;;2.72;;
12896;SDS011;6516;35.028;32.372;2023-02-18T10:48:07;6.15;;;2.33;;
12896;SDS011;6516;35.028;32.372;2023-02-18T10:50:53;5.68;;;2.80;;
12896;SDS011;6516;35.028;32.372;2023-02-18T10:53:24;6.10;;;2.90;;
12896;SDS011;6516;35.028;32.372;2023-02-18T10:55:59;5.00;;;2.53;;
12896;SDS011;6516;35.028;32.372;2023-02-18T10:58:29;5.55;;;2.40;;
12896;SDS011;6516;35.028;32.372;2023-02-18T11:01:00;5.63;;;2.70;;
12896;SDS011;6516;35.028;32.372;2023-02-18T11:03:39;6.68;;;2.90;;
12896;SDS011;6516;35.028;32.372;2023-02-18T11:06:15;7.25;;;2.67;;
12896;SDS011;6516;35.028;32.372;2023-02-18T11:08:50;5.07;;;2.80;;
12896;SDS011;6516;35.028;32.372;2023-02-18T11:11:21;6.07;;;2.60;;
12896;SDS011;6516;35.028;32.372;2023-02-18T11:13:55;4.75;;;2.47;;
12896;SDS011;6516;35.028;32.372;2023-02-18T11:16:35;5.93;;;2.58;;
12896;SDS011;6516;35.028;32.372;2023-02-18T11:19:04;6.57;;;2.95;;
12896;SDS011;6516;35.028;32.372;2023-02-18T11:22:05;5.03;;;2.67;;
12896;SDS011;6516;35.028;32.372;2023-02-18T11:24:38;5.20;;;2.38;;
12896;SDS011;6516;35.028;32.372;2023-02-18T11:27:13;5.35;;;2.60;;
12896;SDS011;6516;35.028;32.372;2023-02-18T11:29:49;5.00;;;2.70;;
12896;SDS011;6516;35.028;32.372;2023-02-18T11:32:21;5.28;;;2.50;;
12896;SDS011;6516;35.028;32.372;2023-02-18T11:34:53;4.93;;;2.40;;
12896;SDS011;6516;35.028;32.372;2023-02-18T11:37:21;5.18;;;2.33;;
12896;SDS011;6516;35.028;32.372;2023-02-18T11:39:51;5.65;;;2.35;;
12896;SDS011;6516;35.028;32.372;2023-02-18T11:42:22;5.95;;;2.75;;
12896;SDS011;6516;35.028;32.372;2023-02-18T11:44:52;5.93;;;2.63;;
12896;SDS011;6516;35.028;32.372;2023-02-18T11:47:24;5.57;;;2.60;;
12896;SDS011;6516;35.028;32.372;2023-02-18T11:50:02;4.50;;;2.35;;
12896;SDS011;6516;35.028;32.372;2023-02-18T11:52:47;7.53;;;2.45;;
12896;SDS011;6516;35.028;32.372;2023-02-18T11:55:20;6.15;;;2.85;;
12896;SDS011;6516;35.028;32.372;2023-02-18T11:57:54;6.95;;;2.65;;
12896;SDS011;6516;35.028;32.372;2023-02-18T12:00:31;5.87;;;2.80;;
12896;SDS011;6516;35.028;32.372;2023-02-18T12:03:06;4.88;;;2.60;;
12896;SDS011;6516;35.028;32.372;2023-02-18T12:05:43;6.50;;;2.58;;
12896;SDS011;6516;35.028;32.372;2023-02-18T12:08:12;5.38;;;2.50;;
12896;SDS011;6516;35.028;32.372;2023-02-18T12:10:48;7.15;;;2.80;;
12896;SDS011;6516;35.028;32.372;2023-02-18T12:13:21;6.30;;;2.50;;
12896;SDS011;6516;35.028;32.372;2023-02-18T12:15:54;5.78;;;2.63;;
12896;SDS011;6516;35.028;32.372;2023-02-18T12:18:45;5.20;;;2.38;;
12896;SDS011;6516;35.028;32.372;2023-02-18T12:21:35;5.20;;;2.45;;
12896;SDS011;6516;35.028;32.372;2023-02-18T12:24:20;6.50;;;3.00;;
12896;SDS011;6516;35.028;32.372;2023-02-18T12:27:07;6.00;;;2.80;;
12896;SDS011;6516;35.028;32.372;2023-02-18T12:32:54;6.45;;;2.80;;
12896;SDS011;6516;35.028;32.372;2023-02-18T12:35:46;4.90;;;2.47;;
12896;SDS011;6516;35.028;32.372;2023-02-18T12:44:23;4.50;;;2.58;;
12896;SDS011;6516;35.028;32.372;2023-02-18T12:47:16;4.70;;;2.67;;
12896;SDS011;6516;35.028;32.372;2023-02-18T12:50:02;5.18;;;2.65;;
12896;SDS011;6516;35.028;32.372;2023-02-18T12:52:58;5.80;;;2.80;;
12896;SDS011;6516;35.028;32.372;2023-02-18T12:55:54;5.70;;;2.80;;
12896;SDS011;6516;35.028;32.372;2023-02-18T12:58:54;5.40;;;2.85;;
12896;SDS011;6516;35.028;32.372;2023-02-18T13:01:36;5.30;;;2.60;;
12896;SDS011;6516;35.028;32.372;2023-02-18T13:04:20;6.75;;;2.92;;
12896;SDS011;6516;35.028;32.372;2023-02-18T13:07:01;6.10;;;3.40;;
12896;SDS011;6516;35.028;32.372;2023-02-18T13:13:03;5.88;;;2.75;;
12896;SDS011;6516;35.028;32.372;2023-02-18T13:15:38;6.60;;;3.22;;
12896;SDS011;6516;35.028;32.372;2023-02-18T13:18:11;5.43;;;3.03;;
12896;SDS011;6516;35.028;32.372;2023-02-18T13:20:45;5.78;;;2.97;;
12896;SDS011;6516;35.028;32.372;2023-02-18T13:23:18;6.70;;;3.20;;
12896;SDS011;6516;35.028;32.372;2023-02-18T13:25:51;6.28;;;3.10;;
12896;SDS011;6516;35.028;32.372;2023-02-18T13:28:25;5.78;;;3.08;;
12896;SDS011;6516;35.028;32.372;2023-02-18T13:31:02;6.43;;;3.15;;
12896;SDS011;6516;35.028;32.372;2023-02-18T13:33:49;6.13;;;2.90;;
12896;SDS011;6516;35.028;32.372;2023-02-18T13:36:27;5.93;;;3.00;;
12896;SDS011;6516;35.028;32.372;2023-02-18T13:39:12;5.63;;;3.20;;
12896;SDS011;6516;35.028;32.372;2023-02-18T13:41:45;5.88;;;3.38;;
12896;SDS011;6516;35.028;32.372;2023-02-18T13:47:34;5.55;;;3.13;;
12896;SDS011;6516;35.028;32.372;2023-02-18T13:53:01;6.25;;;3.03;;
12896;SDS011;6516;35.028;32.372;2023-02-18T13:55:49;5.72;;;3.20;;
12896;SDS011;6516;35.028;32.372;2023-02-18T13:58:29;5.85;;;3.65;;
12896;SDS011;6516;35.028;32.372;2023-02-18T14:01:04;6.97;;;3.58;;
12896;SDS011;6516;35.028;32.372;2023-02-18T14:03:52;7.07;;;3.20;;
12896;SDS011;6516;35.028;32.372;2023-02-18T14:06:27;7.28;;;3.70;;
12896;SDS011;6516;35.028;32.372;2023-02-18T14:21:41;5.15;;;2.95;;
12896;SDS011;6516;35.028;32.372;2023-02-18T14:24:10;5.25;;;3.22;;
12896;SDS011;6516;35.028;32.372;2023-02-18T14:26:39;6.00;;;3.17;;
12896;SDS011;6516;35.028;32.372;2023-02-18T14:29:21;5.57;;;3.50;;
12896;SDS011;6516;35.028;32.372;2023-02-18T14:31:59;7.73;;;3.77;;
12896;SDS011;6516;35.028;32.372;2023-02-18T14:34:33;5.55;;;3.70;;
12896;SDS011;6516;35.028;32.372;2023-02-18T14:37:52;6.15;;;4.20;;
12896;SDS011;6516;35.028;32.372;2023-02-18T14:41:03;6.05;;;3.47;;
12896;SDS011;6516;35.028;32.372;2023-02-18T14:43:55;6.40;;;3.50;;
12896;SDS011;6516;35.028;32.372;2023-02-18T14:46:44;5.77;;;3.60;;
12896;SDS011;6516;35.028;32.372;2023-02-18T14:49:35;6.93;;;3.58;;
12896;SDS011;6516;35.028;32.372;2023-02-18T14:52:10;6.28;;;3.85;;
12896;SDS011;6516;35.028;32.372;2023-02-18T14:54:48;6.40;;;4.05;;
12896;SDS011;6516;35.028;32.372;2023-02-18T14:57:17;7.07;;;4.10;;
12896;SDS011;6516;35.028;32.372;2023-02-18T14:59:47;5.90;;;4.03;;
12896;SDS011;6516;35.028;32.372;2023-02-18T15:02:24;7.25;;;3.92;;
12896;SDS011;6516;35.028;32.372;2023-02-18T15:05:06;6.05;;;3.90;;
12896;SDS011;6516;35.028;32.372;2023-02-18T15:07:41;6.43;;;4.00;;
12896;SDS011;6516;35.028;32.372;2023-02-18T15:10:24;8.18;;;4.20;;
12896;SDS011;6516;35.028;32.372;2023-02-18T15:13:00;7.53;;;4.33;;
12896;SDS011;6516;35.028;32.372;2023-02-18T15:15:29;7.80;;;4.65;;
12896;SDS011;6516;35.028;32.372;2023-02-18T15:17:59;6.70;;;4.40;;
12896;SDS011;6516;35.028;32.372;2023-02-18T15:20:27;7.32;;;4.50;;
12896;SDS011;6516;35.028;32.372;2023-02-18T15:22:59;7.00;;;4.60;;
12896;SDS011;6516;35.028;32.372;2023-02-18T15:25:29;7.83;;;4.73;;
12896;SDS011;6516;35.028;32.372;2023-02-18T15:27:57;7.85;;;5.28;;
12896;SDS011;6516;35.028;32.372;2023-02-18T15:30:26;7.55;;;5.15;;
12896;SDS011;6516;35.028;32.372;2023-02-18T15:32:55;7.63;;;5.10;;
12896;SDS011;6516;35.028;32.372;2023-02-18T15:35:27;7.55;;;5.00;;
12896;SDS011;6516;35.028;32.372;2023-02-18T15:37:58;9.27;;;5.67;;
12896;SDS011;6516;35.028;32.372;2023-02-18T15:40:30;8.32;;;5.28;;
12896;SDS011;6516;35.028;32.372;2023-02-18T15:43:04;7.25;;;4.90;;
12896;SDS011;6516;35.028;32.372;2023-02-18T15:45:34;10.80;;;5.70;;
12896;SDS011;6516;35.028;32.372;2023-02-18T15:48:05;8.75;;;5.68;;
12896;SDS011;6516;35.028;32.372;2023-02-18T15:50:44;8.97;;;5.77;;
12896;SDS011;6516;35.028;32.372;2023-02-18T15:53:18;8.75;;;6.00;;
12896;SDS011;6516;35.028;32.372;2023-02-18T15:55:49;10.40;;;6.20;;
12896;SDS011;6516;35.028;32.372;2023-02-18T15:58:20;8.95;;;6.20;;
12896;SDS011;6516;35.028;32.372;2023-02-18T16:00:54;8.35;;;5.43;;